Time;durP1;ratioP1;P1;durP2;ratioP2;P2;SDS_P1;SDS_P2;PMS_P1;PMS_P2;Temp;Humidity;BMP_temperature;BMP_pressure;BME280_temperature;BME280_humidity;BME280_pressure;Samples;Min_cycle;Max_cycle;Signal;HPM_P1;HPM_P2
2022/03/03 00:02:15;;;;;;;32.28;19.50;;;;;;;;;;5098513;28;20038;-72
2022/03/03 00:04:41;;;;;;;31.00;19.23;;;;;;;;;;5099177;28;20151;-72
2022/03/03 00:07:06;;;;;;;42.78;24.77;;;;;;;;;;5100998;28;20015;-72
2022/03/03 00:09:32;;;;;;;36.17;22.15;;;;;;;;;;5098514;28;20047;-72
2022/03/03 00:11:57;;;;;;;46.97;24.70;;;;;;;;;;5090546;28;20076;-74
2022/03/03 00:14:22;;;;;;;46.25;23.52;;;;;;;;;;5098046;28;20027;-72
2022/03/03 00:16:48;;;;;;;55.70;28.42;;;;;;;;;;5097202;28;20023;-72
2022/03/03 00:19:13;;;;;;;58.53;27.25;;;;;;;;;;5097224;28;20031;-73
2022/03/03 00:21:38;;;;;;;61.17;30.10;;;;;;;;;;5089117;28;20435;-72
2022/03/03 00:24:04;;;;;;;37.85;21.52;;;;;;;;;;5098724;28;20024;-71
2022/03/03 00:26:29;;;;;;;32.42;19.77;;;;;;;;;;5097074;28;20023;-73
2022/03/03 00:28:55;;;;;;;49.08;24.42;;;;;;;;;;5098838;28;20024;-71
2022/03/03 00:31:20;;;;;;;28.17;17.58;;;;;;;;;;5092867;28;20355;-72
2022/03/03 00:33:46;;;;;;;34.47;21.13;;;;;;;;;;5094157;28;20062;-72
2022/03/03 00:36:11;;;;;;;31.52;19.17;;;;;;;;;;5098558;28;20354;-72
2022/03/03 00:38:36;;;;;;;36.95;22.77;;;;;;;;;;5095486;28;20034;-73
2022/03/03 00:41:02;;;;;;;41.92;24.67;;;;;;;;;;5091131;28;20023;-73
2022/03/03 00:43:27;;;;;;;40.35;22.25;;;;;;;;;;5098240;28;20023;-72
2022/03/03 00:45:53;;;;;;;53.20;27.45;;;;;;;;;;5100359;28;20028;-73
2022/03/03 00:48:18;;;;;;;46.40;25.98;;;;;;;;;;5100203;28;20558;-72
2022/03/03 00:50:43;;;;;;;45.28;24.35;;;;;;;;;;5099926;28;20095;-72
2022/03/03 00:53:09;;;;;;;44.17;22.20;;;;;;;;;;5093758;28;20063;-71
2022/03/03 00:55:34;;;;;;;40.78;22.27;;;;;;;;;;5097013;28;20094;-71
2022/03/03 00:57:59;;;;;;;38.20;20.92;;;;;;;;;;5098047;28;20051;-72
2022/03/03 01:00:25;;;;;;;40.40;23.20;;;;;;;;;;5097458;28;20046;-71
2022/03/03 01:02:51;;;;;;;45.00;23.02;;;;;;;;;;5096114;28;20084;-72
2022/03/03 01:05:16;;;;;;;40.03;22.08;;;;;;;;;;5097947;28;20136;-73
2022/03/03 01:07:42;;;;;;;34.42;17.65;;;;;;;;;;5099311;28;20027;-72
2022/03/03 01:10:08;;;;;;;37.13;20.73;;;;;;;;;;5096047;28;21186;-73
2022/03/03 01:12:34;;;;;;;40.63;21.42;;;;;;;;;;5094382;28;20047;-71
2022/03/03 01:14:59;;;;;;;38.38;20.20;;;;;;;;;;5089141;28;20396;-72
2022/03/03 01:17:24;;;;;;;35.70;19.90;;;;;;;;;;5098920;28;20085;-72
2022/03/03 01:19:50;;;;;;;40.80;21.85;;;;;;;;;;5099697;28;20023;-72
2022/03/03 01:22:18;;;;;;;34.85;18.58;;;;;;;;;;5099910;28;20019;-73
2022/03/03 01:24:45;;;;;;;45.83;25.15;;;;;;;;;;5099792;28;20027;-72
2022/03/03 01:27:10;;;;;;;35.03;18.33;;;;;;;;;;5100640;28;20462;-72
2022/03/03 01:29:36;;;;;;;31.42;17.50;;;;;;;;;;5097998;28;20039;-72
2022/03/03 01:32:01;;;;;;;34.92;19.90;;;;;;;;;;5098654;28;20023;-72
2022/03/03 01:34:26;;;;;;;36.53;20.73;;;;;;;;;;5098035;28;20046;-72
2022/03/03 01:36:52;;;;;;;35.95;20.80;;;;;;;;;;5097126;28;20020;-73
2022/03/03 01:39:18;;;;;;;37.17;21.88;;;;;;;;;;5098202;28;20486;-72
2022/03/03 01:41:43;;;;;;;42.58;22.35;;;;;;;;;;5098383;28;20035;-73
2022/03/03 01:44:09;;;;;;;40.47;22.67;;;;;;;;;;5096594;28;20027;-72
2022/03/03 01:46:34;;;;;;;30.23;18.00;;;;;;;;;;5097707;28;20346;-72
2022/03/03 01:49:00;;;;;;;34.20;18.90;;;;;;;;;;5096963;28;20130;-75
2022/03/03 01:51:25;;;;;;;31.40;17.80;;;;;;;;;;5098985;28;20023;-73
2022/03/03 01:53:51;;;;;;;30.23;17.67;;;;;;;;;;5098577;28;20031;-72
2022/03/03 01:56:16;;;;;;;42.35;25.00;;;;;;;;;;5100667;28;20540;-74
2022/03/03 01:58:42;;;;;;;34.97;20.73;;;;;;;;;;5097626;28;20031;-72
2022/03/03 02:01:07;;;;;;;33.67;18.92;;;;;;;;;;5100095;28;20539;-72
2022/03/03 02:03:32;;;;;;;33.17;18.70;;;;;;;;;;5096093;28;20409;-72
2022/03/03 02:05:58;;;;;;;29.77;16.17;;;;;;;;;;5098891;28;20024;-72
2022/03/03 02:08:24;;;;;;;31.95;18.40;;;;;;;;;;5098219;28;20107;-71
2022/03/03 02:10:52;;;;;;;34.55;17.48;;;;;;;;;;5097034;28;20442;-73
2022/03/03 02:13:17;;;;;;;37.88;18.67;;;;;;;;;;5092304;28;20040;-72
2022/03/03 02:15:48;;;;;;;36.35;18.70;;;;;;;;;;5084237;28;20039;-73
2022/03/03 02:18:13;;;;;;;34.45;18.83;;;;;;;;;;5069758;28;20028;-73
2022/03/03 02:20:38;;;;;;;57.13;29.15;;;;;;;;;;5069538;28;20040;-73
2022/03/03 02:23:04;;;;;;;43.35;23.67;;;;;;;;;;5096292;28;20383;-72
2022/03/03 02:25:29;;;;;;;31.33;19.05;;;;;;;;;;5096021;28;20028;-72
2022/03/03 02:27:55;;;;;;;32.80;17.52;;;;;;;;;;5095026;28;20022;-72
2022/03/03 02:30:20;;;;;;;32.70;20.63;;;;;;;;;;5093176;28;20040;-73
2022/03/03 02:32:46;;;;;;;34.80;19.63;;;;;;;;;;5098902;28;20036;-72
2022/03/03 02:35:12;;;;;;;31.35;17.63;;;;;;;;;;5096490;28;20386;-72
2022/03/03 02:37:39;;;;;;;29.48;17.10;;;;;;;;;;5097477;28;20027;-72
2022/03/03 02:40:05;;;;;;;30.23;17.65;;;;;;;;;;5099024;28;20020;-72
2022/03/03 02:42:31;;;;;;;27.45;17.67;;;;;;;;;;5096668;28;20024;-74
2022/03/03 02:44:56;;;;;;;27.15;18.25;;;;;;;;;;5098479;28;20077;-72
2022/03/03 02:47:21;;;;;;;25.15;15.90;;;;;;;;;;5099020;28;20028;-72
2022/03/03 02:49:47;;;;;;;29.55;16.80;;;;;;;;;;5098686;28;20798;-72
2022/03/03 02:52:12;;;;;;;32.17;18.20;;;;;;;;;;5099804;28;20035;-72
2022/03/03 02:54:38;;;;;;;29.75;17.40;;;;;;;;;;5096453;28;20035;-72
2022/03/03 02:59:47;;;;;;;31.25;18.90;;;;;;;;;;5091682;28;20359;-73
2022/03/03 03:02:12;;;;;;;28.30;17.38;;;;;;;;;;5096271;28;20027;-73
2022/03/03 03:04:38;;;;;;;29.67;16.38;;;;;;;;;;5096175;28;20431;-73
2022/03/03 03:07:03;;;;;;;27.45;16.48;;;;;;;;;;5099012;28;20024;-72
2022/03/03 03:09:29;;;;;;;32.80;18.10;;;;;;;;;;5099282;28;20102;-75
2022/03/03 03:11:54;;;;;;;28.77;16.40;;;;;;;;;;5100284;28;20473;-72
2022/03/03 03:14:19;;;;;;;29.33;16.55;;;;;;;;;;5099883;28;20035;-72
2022/03/03 03:16:45;;;;;;;28.02;17.15;;;;;;;;;;5102406;28;20031;-69
2022/03/03 03:19:10;;;;;;;32.65;17.95;;;;;;;;;;5093271;28;20059;-73
2022/03/03 03:21:36;;;;;;;28.90;17.17;;;;;;;;;;5099615;28;20034;-72
2022/03/03 03:24:01;;;;;;;30.70;15.98;;;;;;;;;;5098476;28;20016;-72
2022/03/03 03:26:27;;;;;;;26.58;15.68;;;;;;;;;;5101169;28;20311;-74
2022/03/03 03:28:52;;;;;;;27.92;17.35;;;;;;;;;;5102513;28;20092;-72
2022/03/03 03:31:18;;;;;;;21.95;14.80;;;;;;;;;;5084009;28;20426;-71
2022/03/03 03:33:43;;;;;;;24.10;13.95;;;;;;;;;;5100813;28;20146;-73
2022/03/03 03:36:08;;;;;;;27.65;16.88;;;;;;;;;;5101343;28;20172;-71
2022/03/03 03:38:34;;;;;;;25.10;15.63;;;;;;;;;;5096473;28;20028;-70
2022/03/03 03:40:59;;;;;;;27.83;15.93;;;;;;;;;;5101117;28;20028;-70
2022/03/03 03:43:25;;;;;;;28.17;16.13;;;;;;;;;;5099582;28;20020;-71
2022/03/03 03:45:50;;;;;;;26.40;17.40;;;;;;;;;;5100183;28;20023;-71
2022/03/03 03:48:15;;;;;;;28.45;17.23;;;;;;;;;;5100711;28;20030;-71
2022/03/03 03:50:41;;;;;;;24.52;15.45;;;;;;;;;;5101390;28;20024;-73
2022/03/03 03:53:06;;;;;;;24.02;14.15;;;;;;;;;;5090210;28;20050;-72
2022/03/03 03:55:31;;;;;;;30.27;21.13;;;;;;;;;;5099855;28;20376;-72
2022/03/03 03:57:57;;;;;;;23.77;16.88;;;;;;;;;;5094929;28;20023;-72
2022/03/03 04:00:22;;;;;;;26.00;16.02;;;;;;;;;;5097163;28;20032;-71
2022/03/03 04:02:47;;;;;;;27.52;17.10;;;;;;;;;;5100898;28;20426;-73
2022/03/03 04:05:13;;;;;;;26.27;16.05;;;;;;;;;;5101024;28;20119;-71
2022/03/03 04:07:40;;;;;;;26.05;15.48;;;;;;;;;;5101750;28;20076;-70
2022/03/03 04:10:05;;;;;;;25.50;15.85;;;;;;;;;;5098809;28;20024;-71
2022/03/03 04:12:31;;;;;;;26.02;16.58;;;;;;;;;;5100893;28;20035;-71
2022/03/03 04:14:56;;;;;;;31.17;17.88;;;;;;;;;;5099463;28;20046;-71
2022/03/03 04:17:21;;;;;;;23.50;15.50;;;;;;;;;;5097894;28;20382;-73
2022/03/03 04:19:47;;;;;;;25.75;16.08;;;;;;;;;;5097978;28;20027;-70
2022/03/03 04:22:12;;;;;;;28.73;16.73;;;;;;;;;;5099160;28;20029;-71
2022/03/03 04:24:37;;;;;;;26.50;16.35;;;;;;;;;;5099211;28;20044;-71
2022/03/03 04:27:04;;;;;;;26.23;15.13;;;;;;;;;;5100001;28;20024;-72
2022/03/03 04:29:29;;;;;;;28.25;15.75;;;;;;;;;;5095974;28;20012;-71
2022/03/03 04:31:57;;;;;;;26.63;15.10;;;;;;;;;;5096624;28;20080;-72
2022/03/03 04:34:23;;;;;;;25.30;15.85;;;;;;;;;;5100896;28;20063;-71
2022/03/03 04:36:48;;;;;;;29.02;17.45;;;;;;;;;;5101468;28;20124;-71
2022/03/03 04:39:14;;;;;;;35.10;18.08;;;;;;;;;;5100038;28;20184;-71
2022/03/03 04:41:40;;;;;;;26.08;15.98;;;;;;;;;;5101739;28;20035;-71
2022/03/03 04:44:05;;;;;;;34.60;19.95;;;;;;;;;;5098849;28;20027;-71
2022/03/03 04:46:31;;;;;;;38.75;21.02;;;;;;;;;;5097709;28;20515;-72
2022/03/03 04:48:59;;;;;;;30.92;17.80;;;;;;;;;;5089353;28;20126;-72
2022/03/03 04:51:25;;;;;;;32.33;17.67;;;;;;;;;;5088132;28;20384;-71
2022/03/03 04:53:50;;;;;;;30.05;17.02;;;;;;;;;;5088458;28;20515;-72
2022/03/03 04:56:16;;;;;;;31.17;18.98;;;;;;;;;;5089168;28;20058;-73
2022/03/03 04:58:42;;;;;;;33.10;20.25;;;;;;;;;;5088703;28;20096;-72
2022/03/03 05:01:07;;;;;;;31.77;18.88;;;;;;;;;;5088428;28;20024;-71
2022/03/03 05:03:33;;;;;;;33.28;19.25;;;;;;;;;;5096715;27;20032;-74
2022/03/03 05:05:58;;;;;;;32.88;20.40;;;;;;;;;;5100710;27;20015;-71
2022/03/03 05:08:23;;;;;;;41.38;23.20;;;;;;;;;;5099848;28;20458;-71
2022/03/03 05:10:49;;;;;;;32.38;18.58;;;;;;;;;;5094312;28;20103;-73
2022/03/03 05:13:14;;;;;;;32.05;18.23;;;;;;;;;;5090643;28;20051;-72
2022/03/03 05:15:39;;;;;;;29.08;16.75;;;;;;;;;;5097731;28;20062;-70
2022/03/03 05:18:05;;;;;;;28.83;18.13;;;;;;;;;;5097988;28;20504;-73
2022/03/03 05:20:30;;;;;;;25.90;15.27;;;;;;;;;;5097701;28;20011;-70
2022/03/03 05:22:55;;;;;;;27.10;15.48;;;;;;;;;;5093445;28;20024;-71
2022/03/03 05:25:22;;;;;;;35.90;20.40;;;;;;;;;;5092400;28;20078;-72
2022/03/03 05:27:47;;;;;;;32.78;18.27;;;;;;;;;;5097189;28;20035;-71
2022/03/03 05:30:12;;;;;;;33.50;18.45;;;;;;;;;;5096868;28;20035;-71
2022/03/03 05:32:38;;;;;;;30.98;18.23;;;;;;;;;;5083153;28;20072;-72
2022/03/03 05:35:04;;;;;;;31.33;17.30;;;;;;;;;;5100373;28;20065;-71
2022/03/03 05:37:29;;;;;;;32.28;18.30;;;;;;;;;;5094758;28;20047;-71
2022/03/03 05:39:54;;;;;;;27.80;17.52;;;;;;;;;;5087652;28;20027;-72
2022/03/03 05:42:20;;;;;;;31.13;19.85;;;;;;;;;;5085353;28;20080;-73
2022/03/03 05:44:46;;;;;;;30.65;18.10;;;;;;;;;;5097104;28;20031;-71
2022/03/03 05:47:12;;;;;;;30.92;18.00;;;;;;;;;;5090290;28;20031;-72
2022/03/03 05:49:38;;;;;;;29.95;18.83;;;;;;;;;;5096162;28;20097;-69
2022/03/03 05:52:04;;;;;;;32.33;18.75;;;;;;;;;;5096391;28;20039;-70
2022/03/03 05:54:29;;;;;;;34.67;20.52;;;;;;;;;;5096303;28;20370;-70
2022/03/03 05:56:55;;;;;;;38.38;22.75;;;;;;;;;;5097146;28;20049;-72
2022/03/03 05:59:21;;;;;;;34.00;20.80;;;;;;;;;;5096978;28;20458;-69
2022/03/03 06:01:47;;;;;;;29.60;18.02;;;;;;;;;;5097282;28;20024;-71
2022/03/03 06:04:13;;;;;;;29.23;17.45;;;;;;;;;;5097513;28;20035;-68
2022/03/03 06:06:42;;;;;;;30.92;16.50;;;;;;;;;;5095489;28;20024;-71
2022/03/03 06:09:13;;;;;;;33.53;21.38;;;;;;;;;;5095847;28;20027;-69
2022/03/03 06:11:57;;;;;;;42.72;24.83;;;;;;;;;;5095161;28;20020;-68
2022/03/03 06:14:37;;;;;;;49.20;26.92;;;;;;;;;;5097996;28;20335;-68
2022/03/03 06:17:02;;;;;;;27.70;16.20;;;;;;;;;;5087638;28;20035;-68
2022/03/03 06:19:29;;;;;;;34.88;19.10;;;;;;;;;;5086811;28;20019;-65
2022/03/03 06:21:54;;;;;;;30.27;17.30;;;;;;;;;;5094448;28;20020;-65
2022/03/03 06:24:20;;;;;;;33.83;17.42;;;;;;;;;;5097249;28;20091;-67
2022/03/03 06:26:46;;;;;;;31.15;18.63;;;;;;;;;;5087503;28;20023;-68
2022/03/03 06:29:12;;;;;;;36.15;20.75;;;;;;;;;;5098028;28;20023;-67
2022/03/03 06:31:38;;;;;;;50.88;26.75;;;;;;;;;;5079175;28;20020;-67
2022/03/03 06:34:03;;;;;;;32.28;17.55;;;;;;;;;;5097513;28;20051;-68
2022/03/03 06:36:29;;;;;;;51.78;26.88;;;;;;;;;;5097493;28;20307;-69
2022/03/03 06:38:54;;;;;;;63.80;33.05;;;;;;;;;;5096434;28;20027;-71
2022/03/03 06:41:19;;;;;;;73.18;39.28;;;;;;;;;;5103575;28;20106;-70
2022/03/03 06:43:45;;;;;;;53.80;29.48;;;;;;;;;;5102014;28;20042;-71
2022/03/03 06:46:10;;;;;;;57.90;33.47;;;;;;;;;;5102880;28;20385;-69
2022/03/03 06:48:35;;;;;;;52.28;29.52;;;;;;;;;;5100985;28;20028;-70
2022/03/03 06:51:05;;;;;;;55.92;28.67;;;;;;;;;;5101779;28;20022;-72
2022/03/03 06:53:31;;;;;;;56.55;29.70;;;;;;;;;;5101446;28;20027;-71
2022/03/03 06:56:07;;;;;;;56.78;31.90;;;;;;;;;;5087578;28;20031;-71
2022/03/03 06:58:33;;;;;;;77.20;41.55;;;;;;;;;;5088103;28;20035;-72
2022/03/03 07:01:01;;;;;;;78.65;41.10;;;;;;;;;;5088152;28;21151;-70
2022/03/03 07:03:27;;;;;;;55.20;28.13;;;;;;;;;;5089073;28;20084;-71
2022/03/03 07:05:52;;;;;;;65.00;34.53;;;;;;;;;;5088644;28;20024;-70
2022/03/03 07:08:20;;;;;;;57.80;30.13;;;;;;;;;;5087024;28;20479;-73
2022/03/03 07:10:46;;;;;;;66.47;31.48;;;;;;;;;;5090010;27;20101;-71
2022/03/03 07:13:13;;;;;;;71.70;38.80;;;;;;;;;;5088497;27;20443;-71
2022/03/03 07:15:43;;;;;;;52.40;27.75;;;;;;;;;;5085822;28;20560;-71
2022/03/03 07:18:09;;;;;;;;;;;;;;;;;;5089305;28;20028;-72
2022/03/03 07:20:37;;;;;;;50.15;26.23;;;;;;;;;;5088669;28;19998;-72
2022/03/03 07:23:04;;;;;;;49.35;26.17;;;;;;;;;;5087959;28;20030;-71
2022/03/03 07:25:38;;;;;;;56.17;30.75;;;;;;;;;;5087501;28;20034;-72
2022/03/03 07:28:05;;;;;;;60.13;33.63;;;;;;;;;;5087608;28;20106;-71
2022/03/03 07:30:31;;;;;;;47.95;27.33;;;;;;;;;;5088089;28;20032;-72
2022/03/03 07:33:05;;;;;;;39.25;23.65;;;;;;;;;;5070473;28;20042;-72
2022/03/03 07:35:32;;;;;;;39.40;24.50;;;;;;;;;;5088028;28;20016;-71
2022/03/03 07:37:59;;;;;;;46.80;25.15;;;;;;;;;;5087465;28;20027;-72
2022/03/03 07:40:28;;;;;;;46.70;27.05;;;;;;;;;;5086647;28;20063;-71
2022/03/03 07:42:54;;;;;;;46.53;27.70;;;;;;;;;;5088009;28;20035;-72
2022/03/03 07:45:20;;;;;;;43.03;23.15;;;;;;;;;;5086565;28;20042;-70
2022/03/03 07:47:47;;;;;;;42.72;23.42;;;;;;;;;;5090338;28;20020;-70
2022/03/03 07:50:13;;;;;;;46.03;27.70;;;;;;;;;;5088237;28;20054;-72
2022/03/03 07:52:38;;;;;;;46.95;27.25;;;;;;;;;;5090938;28;20426;-74
2022/03/03 07:55:04;;;;;;;58.22;31.58;;;;;;;;;;5088372;28;20019;-71
2022/03/03 07:57:38;;;;;;;43.40;25.77;;;;;;;;;;5087036;28;20034;-72
2022/03/03 08:00:06;;;;;;;49.80;30.90;;;;;;;;;;5091330;28;20023;-67
2022/03/03 08:02:32;;;;;;;42.75;25.88;;;;;;;;;;5088137;28;20027;-70
2022/03/03 08:04:59;;;;;;;54.35;35.92;;;;;;;;;;5087538;28;20036;-71
2022/03/03 08:07:24;;;;;;;40.75;23.75;;;;;;;;;;5087459;28;20084;-73
2022/03/03 08:09:54;;;;;;;51.30;30.70;;;;;;;;;;5086374;28;20035;-73
2022/03/03 08:12:21;;;;;;;56.85;33.42;;;;;;;;;;5086441;28;20048;-75
2022/03/03 08:14:47;;;;;;;48.80;25.92;;;;;;;;;;5088593;28;20027;-73
2022/03/03 08:17:13;;;;;;;53.78;28.75;;;;;;;;;;5086491;28;20034;-72
2022/03/03 08:19:39;;;;;;;76.25;38.72;;;;;;;;;;5085460;28;20355;-75
2022/03/03 08:22:05;;;;;;;44.25;25.90;;;;;;;;;;5088434;28;20027;-73
2022/03/03 08:24:33;;;;;;;99.65;48.58;;;;;;;;;;5086277;28;20024;-75
2022/03/03 08:27:01;;;;;;;63.95;33.53;;;;;;;;;;5091252;27;20027;-69
2022/03/03 08:29:26;;;;;;;65.20;36.67;;;;;;;;;;5088259;27;20031;-73
2022/03/03 08:31:56;;;;;;;54.17;26.10;;;;;;;;;;5085945;28;20434;-73
2022/03/03 08:34:37;;;;;;;52.55;29.45;;;;;;;;;;5088363;28;20102;-71
2022/03/03 08:37:03;;;;;;;43.20;24.10;;;;;;;;;;5086782;28;20028;-72
2022/03/03 08:39:30;;;;;;;39.47;22.95;;;;;;;;;;5088626;28;20395;-71
2022/03/03 08:41:56;;;;;;;57.75;32.97;;;;;;;;;;5086099;28;20019;-71
2022/03/03 08:44:26;;;;;;;80.35;39.70;;;;;;;;;;5086295;28;20023;-71
2022/03/03 08:46:51;;;;;;;49.63;28.60;;;;;;;;;;5086472;28;20055;-70
2022/03/03 08:49:17;;;;;;;63.47;31.95;;;;;;;;;;5086196;28;20426;-71
2022/03/03 08:51:42;;;;;;;48.50;28.75;;;;;;;;;;5085929;28;20030;-68
2022/03/03 08:54:08;;;;;;;32.60;17.58;;;;;;;;;;5085024;28;20032;-71
2022/03/03 08:56:33;;;;;;;36.97;22.27;;;;;;;;;;5086949;28;20485;-71
2022/03/03 08:58:59;;;;;;;42.00;24.20;;;;;;;;;;5085296;28;20032;-69
2022/03/03 09:01:24;;;;;;;47.35;26.42;;;;;;;;;;5085868;28;20027;-71
2022/03/03 09:03:50;;;;;;;33.40;19.73;;;;;;;;;;5094838;28;20054;-69
2022/03/03 09:06:16;;;;;;;37.38;21.10;;;;;;;;;;5091713;28;20047;-69
2022/03/03 09:08:41;;;;;;;45.42;25.75;;;;;;;;;;5094807;28;20023;-69
2022/03/03 09:11:07;;;;;;;39.85;21.48;;;;;;;;;;5094151;28;20012;-68
2022/03/03 09:13:32;;;;;;;48.78;24.38;;;;;;;;;;5090410;28;20044;-69
2022/03/03 09:15:58;;;;;;;38.00;21.17;;;;;;;;;;5077791;28;20036;-73
2022/03/03 09:18:23;;;;;;;31.40;18.67;;;;;;;;;;5089054;28;20081;-69
2022/03/03 09:20:49;;;;;;;24.15;16.63;;;;;;;;;;5091183;28;20126;-69
2022/03/03 09:23:14;;;;;;;33.15;19.55;;;;;;;;;;5094827;28;20401;-70
2022/03/03 09:25:41;;;;;;;59.50;30.90;;;;;;;;;;5094314;28;20031;-73
2022/03/03 09:28:07;;;;;;;50.42;28.90;;;;;;;;;;5086439;28;20019;-73
2022/03/03 09:30:33;;;;;;;32.83;20.42;;;;;;;;;;5084871;28;20069;-74
2022/03/03 09:32:59;;;;;;;44.13;25.52;;;;;;;;;;5086497;28;20059;-75
2022/03/03 09:35:25;;;;;;;39.45;24.70;;;;;;;;;;5069802;28;20086;-73
2022/03/03 09:37:51;;;;;;;32.30;19.20;;;;;;;;;;5072208;28;20032;-73
2022/03/03 09:40:16;;;;;;;38.75;23.45;;;;;;;;;;5086680;28;20072;-73
2022/03/03 09:42:53;;;;;;;40.70;23.10;;;;;;;;;;5086996;28;20015;-73
2022/03/03 09:45:19;;;;;;;34.00;20.33;;;;;;;;;;5084941;28;20118;-73
2022/03/03 09:47:44;;;;;;;65.65;36.75;;;;;;;;;;5085575;28;20084;-73
2022/03/03 09:50:09;;;;;;;34.20;19.10;;;;;;;;;;5086886;28;20031;-74
2022/03/03 09:52:35;;;;;;;33.53;21.10;;;;;;;;;;5091137;28;20383;-72
2022/03/03 09:55:01;;;;;;;34.20;18.38;;;;;;;;;;5079150;28;20042;-70
2022/03/03 09:57:28;;;;;;;39.42;23.30;;;;;;;;;;5096983;28;20028;-72
2022/03/03 09:59:53;;;;;;;78.18;37.20;;;;;;;;;;5093381;28;20022;-68
2022/03/03 10:02:18;;;;;;;50.67;28.98;;;;;;;;;;5096723;28;20023;-71
2022/03/03 10:04:44;;;;;;;71.60;37.00;;;;;;;;;;5096502;28;20456;-72
2022/03/03 10:07:10;;;;;;;41.38;24.23;;;;;;;;;;5097709;28;20082;-72
2022/03/03 10:09:59;;;;;;;26.65;18.42;;;;;;;;;;5097260;28;20019;-72
2022/03/03 10:12:22;;;;;;;63.55;36.22;;;;;;;;;;5088165;28;20116;-72
2022/03/03 10:14:48;;;;;;;28.10;19.58;;;;;;;;;;5084985;28;20039;-71
2022/03/03 10:17:14;;;;;;;48.33;31.83;;;;;;;;;;5068962;28;20046;-69
2022/03/03 10:19:56;;;;;;;39.80;25.50;;;;;;;;;;5085743;28;20020;-71
2022/03/03 10:22:39;;;;;;;37.03;23.75;;;;;;;;;;5086606;28;20115;-71
2022/03/03 10:25:06;;;;;;;34.97;20.92;;;;;;;;;;5093974;28;20102;-72
2022/03/03 10:27:33;;;;;;;33.95;20.83;;;;;;;;;;5095057;28;20440;-70
2022/03/03 10:29:59;;;;;;;43.15;28.02;;;;;;;;;;5082189;28;20027;-71
2022/03/03 10:32:25;;;;;;;54.53;34.17;;;;;;;;;;5095293;28;20338;-72
2022/03/03 10:34:53;;;;;;;44.88;28.27;;;;;;;;;;5097061;28;20091;-68
2022/03/03 10:37:22;;;;;;;102.85;49.88;;;;;;;;;;5087687;28;20107;-71
2022/03/03 10:39:48;;;;;;;55.45;26.05;;;;;;;;;;5086008;28;20027;-70
2022/03/03 10:42:21;;;;;;;28.27;16.38;;;;;;;;;;5086115;28;20020;-71
2022/03/03 10:44:47;;;;;;;47.88;23.55;;;;;;;;;;5093145;28;20110;-71
2022/03/03 10:47:14;;;;;;;34.88;19.98;;;;;;;;;;5090122;28;20076;-70
2022/03/03 10:49:41;;;;;;;42.25;23.25;;;;;;;;;;5093859;28;20465;-71
2022/03/03 10:52:11;;;;;;;53.28;29.40;;;;;;;;;;5096357;28;20035;-75
2022/03/03 10:54:55;;;;;;;35.67;22.48;;;;;;;;;;5096133;28;20088;-70
2022/03/03 10:57:39;;;;;;;41.08;24.75;;;;;;;;;;5097549;28;20055;-73
2022/03/03 11:00:06;;;;;;;33.83;17.75;;;;;;;;;;5086275;28;20024;-71
2022/03/03 11:02:32;;;;;;;47.75;26.23;;;;;;;;;;5084905;28;20062;-72
2022/03/03 11:04:58;;;;;;;59.92;29.08;;;;;;;;;;5085873;28;20103;-74
2022/03/03 11:07:23;;;;;;;51.40;26.23;;;;;;;;;;5085941;28;20032;-71
2022/03/03 11:09:49;;;;;;;27.23;15.95;;;;;;;;;;5085886;28;20023;-74
2022/03/03 11:12:15;;;;;;;25.90;15.30;;;;;;;;;;5085623;28;20521;-72
2022/03/03 11:14:40;;;;;;;31.00;17.13;;;;;;;;;;5085083;28;20062;-72
2022/03/03 11:17:06;;;;;;;29.48;18.10;;;;;;;;;;5089037;28;20062;-72
2022/03/03 11:19:32;;;;;;;43.92;24.10;;;;;;;;;;5086908;28;20072;-73
2022/03/03 11:21:57;;;;;;;68.10;35.75;;;;;;;;;;5085422;28;20111;-73
2022/03/03 11:24:23;;;;;;;32.15;19.38;;;;;;;;;;5085558;28;20442;-72
2022/03/03 11:26:49;;;;;;;35.28;18.15;;;;;;;;;;5087421;27;20068;-74
2022/03/03 11:29:15;;;;;;;54.85;24.67;;;;;;;;;;5089491;28;20528;-72
2022/03/03 11:31:41;;;;;;;35.20;19.30;;;;;;;;;;5087066;28;20651;-72
2022/03/03 11:34:26;;;;;;;41.38;22.77;;;;;;;;;;5088294;28;20028;-71
2022/03/03 11:37:03;;;;;;;43.08;25.13;;;;;;;;;;5087844;28;20462;-74
2022/03/03 11:39:34;;;;;;;27.05;16.33;;;;;;;;;;5086087;28;20435;-73
2022/03/03 11:42:15;;;;;;;21.33;14.00;;;;;;;;;;5087115;28;20031;-75
2022/03/03 11:44:40;;;;;;;48.05;22.33;;;;;;;;;;5089100;28;20028;-71
2022/03/03 11:47:19;;;;;;;46.97;24.48;;;;;;;;;;5090492;28;20438;-70
2022/03/03 11:50:05;;;;;;;36.58;22.35;;;;;;;;;;5088694;28;20037;-72
2022/03/03 11:52:30;;;;;;;44.05;23.85;;;;;;;;;;5089054;28;20032;-72
2022/03/03 11:54:59;;;;;;;24.17;14.63;;;;;;;;;;5087125;28;20042;-72
2022/03/03 11:57:28;;;;;;;19.48;13.15;;;;;;;;;;5088863;28;20057;-71
2022/03/03 11:59:59;;;;;;;28.27;16.45;;;;;;;;;;5088134;28;20028;-73
2022/03/03 12:02:31;;;;;;;21.50;16.02;;;;;;;;;;5091739;28;20057;-70
2022/03/03 12:05:15;;;;;;;32.47;19.65;;;;;;;;;;5086909;28;20035;-70
2022/03/03 12:07:41;;;;;;;53.75;32.00;;;;;;;;;;5092456;28;20023;-69
2022/03/03 12:10:18;;;;;;;45.83;26.35;;;;;;;;;;5097653;28;20034;-70
2022/03/03 12:12:44;;;;;;;23.50;14.30;;;;;;;;;;5099140;28;20516;-70
2022/03/03 12:15:09;;;;;;;34.92;18.38;;;;;;;;;;5102646;28;20072;-70
2022/03/03 12:17:44;;;;;;;27.05;15.55;;;;;;;;;;5102089;28;20070;-70
2022/03/03 12:20:30;;;;;;;39.65;24.45;;;;;;;;;;5102165;28;20031;-70
2022/03/03 12:23:08;;;;;;;19.77;12.57;;;;;;;;;;5099624;28;20020;-72
2022/03/03 12:25:51;;;;;;;16.60;11.15;;;;;;;;;;5084128;28;20116;-69
2022/03/03 12:28:18;;;;;;;23.23;13.40;;;;;;;;;;5100344;28;20088;-70
2022/03/03 12:30:44;;;;;;;23.02;14.65;;;;;;;;;;5098046;28;20023;-70
2022/03/03 12:33:19;;;;;;;26.13;17.58;;;;;;;;;;5099993;28;20110;-71
2022/03/03 12:35:46;;;;;;;20.02;13.80;;;;;;;;;;5099311;28;20040;-70
2022/03/03 12:38:12;;;;;;;33.22;20.55;;;;;;;;;;5102135;28;20023;-72
2022/03/03 12:40:38;;;;;;;28.30;17.08;;;;;;;;;;5099366;28;20365;-72
2022/03/03 12:43:09;;;;;;;18.55;12.52;;;;;;;;;;5099705;28;20431;-71
2022/03/03 12:45:34;;;;;;;22.88;14.85;;;;;;;;;;5101302;28;21041;-70
2022/03/03 12:48:00;;;;;;;17.08;12.70;;;;;;;;;;5102996;28;20030;-70
2022/03/03 12:50:26;;;;;;;25.55;15.10;;;;;;;;;;5100812;28;20023;-72
2022/03/03 12:52:55;;;;;;;28.55;17.92;;;;;;;;;;5085273;28;20016;-73
2022/03/03 12:55:25;;;;;;;48.17;21.83;;;;;;;;;;5100451;28;20116;-70
2022/03/03 12:57:51;;;;;;;47.45;24.15;;;;;;;;;;5101315;28;20130;-71
2022/03/03 13:00:16;;;;;;;24.65;15.15;;;;;;;;;;5099990;28;20027;-72
2022/03/03 13:02:48;;;;;;;27.23;15.77;;;;;;;;;;5101525;28;20050;-70
2022/03/03 13:05:27;;;;;;;24.80;15.48;;;;;;;;;;5100870;28;20020;-71
2022/03/03 13:07:52;;;;;;;22.15;12.85;;;;;;;;;;5101100;28;20023;-70
2022/03/03 13:10:17;;;;;;;23.63;14.27;;;;;;;;;;5101274;28;20420;-72
2022/03/03 13:12:46;;;;;;;12.55;9.00;;;;;;;;;;5100250;28;20047;-70
2022/03/03 13:15:12;;;;;;;16.52;11.70;;;;;;;;;;5100600;28;20024;-73
2022/03/03 13:17:54;;;;;;;26.65;18.50;;;;;;;;;;5099809;28;20028;-70
2022/03/03 13:20:20;;;;;;;18.52;11.63;;;;;;;;;;5097989;28;20321;-72
2022/03/03 13:22:46;;;;;;;22.90;14.10;;;;;;;;;;5101980;28;20073;-71
2022/03/03 13:25:15;;;;;;;23.05;15.82;;;;;;;;;;5099778;28;20052;-70
2022/03/03 13:27:44;;;;;;;28.33;17.08;;;;;;;;;;5097940;28;20027;-73
2022/03/03 13:30:10;;;;;;;23.30;14.63;;;;;;;;;;5099413;28;20098;-71
2022/03/03 13:32:46;;;;;;;20.35;13.55;;;;;;;;;;5097189;28;21154;-72
2022/03/03 13:35:12;;;;;;;15.35;10.35;;;;;;;;;;5099800;28;20035;-72
2022/03/03 13:37:38;;;;;;;15.15;10.57;;;;;;;;;;5096550;28;20490;-73
2022/03/03 13:40:16;;;;;;;22.33;14.23;;;;;;;;;;5098863;28;20447;-73
2022/03/03 13:42:42;;;;;;;14.43;9.60;;;;;;;;;;5099733;28;20020;-72
2022/03/03 13:45:07;;;;;;;15.82;10.77;;;;;;;;;;5097432;28;20325;-72
2022/03/03 13:47:42;;;;;;;20.55;14.55;;;;;;;;;;5098229;28;20027;-72
2022/03/03 13:50:08;;;;;;;21.70;14.80;;;;;;;;;;5097739;28;20023;-71
2022/03/03 13:52:35;;;;;;;22.27;14.02;;;;;;;;;;5082948;28;20392;-71
2022/03/03 13:55:16;;;;;;;23.52;14.63;;;;;;;;;;5098237;28;20019;-73
2022/03/03 13:57:43;;;;;;;26.00;16.23;;;;;;;;;;5101107;28;20039;-72
2022/03/03 14:00:20;;;;;;;28.02;16.75;;;;;;;;;;5099265;28;20112;-70
2022/03/03 14:02:56;;;;;;;26.95;15.82;;;;;;;;;;5099872;28;20070;-70
2022/03/03 14:05:35;;;;;;;18.95;13.77;;;;;;;;;;5100630;28;20028;-72
2022/03/03 14:08:01;;;;;;;28.33;16.23;;;;;;;;;;5099119;28;20023;-70
2022/03/03 14:10:44;;;;;;;23.70;14.00;;;;;;;;;;5098899;28;20023;-71
2022/03/03 14:13:09;;;;;;;29.45;16.40;;;;;;;;;;5098886;28;20386;-70
2022/03/03 14:15:34;;;;;;;32.08;17.60;;;;;;;;;;5098960;28;20042;-71
2022/03/03 14:18:00;;;;;;;36.60;21.10;;;;;;;;;;5098938;28;20388;-70
2022/03/03 14:20:25;;;;;;;35.97;20.52;;;;;;;;;;5100687;28;20036;-72
2022/03/03 14:22:54;;;;;;;53.30;28.30;;;;;;;;;;5098804;28;20023;-70